sensor_id;sensor_type;location;lat;lon;timestamp;pressure;altitude;pressure_sealevel;temperature;humidity
52105;BME280;38103;42.776;23.112;2022-10-16T00:01:10;94597.44;;;4.87;100.00
52105;BME280;38103;42.776;23.112;2022-10-16T00:03:37;94600.06;;;5.02;100.00
52105;BME280;38103;42.776;23.112;2022-10-16T00:06:03;94606.53;;;5.07;100.00
52105;BME280;38103;42.776;23.112;2022-10-16T00:08:29;94609.53;;;5.03;100.00
52105;BME280;38103;42.776;23.112;2022-10-16T00:11:03;94605.47;;;4.86;100.00
52105;BME280;38103;42.776;23.112;2022-10-16T00:13:31;94606.59;;;4.76;100.00
52105;BME280;38103;42.776;23.112;2022-10-16T00:15:58;94617.59;;;4.87;100.00
52105;BME280;38103;42.776;23.112;2022-10-16T00:18:25;94612.50;;;5.00;100.00
52105;BME280;38103;42.776;23.112;2022-10-16T00:20:50;94616.28;;;5.13;100.00
52105;BME280;38103;42.776;23.112;2022-10-16T00:23:16;94620.47;;;5.07;100.00
52105;BME280;38103;42.776;23.112;2022-10-16T00:25:41;94615.59;;;4.89;100.00
52105;BME280;38103;42.776;23.112;2022-10-16T00:28:06;94619.56;;;4.85;100.00
52105;BME280;38103;42.776;23.112;2022-10-16T00:30:32;94613.97;;;4.88;100.00
52105;BME280;38103;42.776;23.112;2022-10-16T00:32:57;94625.53;;;4.78;100.00
52105;BME280;38103;42.776;23.112;2022-10-16T00:35:23;94617.78;;;4.70;100.00
52105;BME280;38103;42.776;23.112;2022-10-16T00:37:48;94615.22;;;4.62;100.00
52105;BME280;38103;42.776;23.112;2022-10-16T00:40:14;94618.50;;;4.64;100.00
52105;BME280;38103;42.776;23.112;2022-10-16T00:42:39;94608.31;;;4.69;100.00
52105;BME280;38103;42.776;23.112;2022-10-16T00:45:05;94605.94;;;4.74;100.00
52105;BME280;38103;42.776;23.112;2022-10-16T00:47:34;94612.19;;;4.73;100.00
52105;BME280;38103;42.776;23.112;2022-10-16T00:50:13;94620.13;;;4.65;100.00
52105;BME280;38103;42.776;23.112;2022-10-16T00:52:43;94619.22;;;4.57;100.00
52105;BME280;38103;42.776;23.112;2022-10-16T00:55:10;94618.75;;;4.54;100.00
52105;BME280;38103;42.776;23.112;2022-10-16T00:57:36;94623.19;;;4.53;100.00
52105;BME280;38103;42.776;23.112;2022-10-16T01:00:07;94617.41;;;4.43;100.00
52105;BME280;38103;42.776;23.112;2022-10-16T01:02:33;94625.06;;;4.29;100.00
52105;BME280;38103;42.776;23.112;2022-10-16T01:04:59;94632.44;;;4.25;100.00
52105;BME280;38103;42.776;23.112;2022-10-16T01:10:52;94625.13;;;4.21;100.00
52105;BME280;38103;42.776;23.112;2022-10-16T01:13:30;94622.56;;;4.12;100.00
52105;BME280;38103;42.776;23.112;2022-10-16T01:16:13;94619.31;;;4.10;100.00
52105;BME280;38103;42.776;23.112;2022-10-16T01:21:22;94614.44;;;4.07;100.00
52105;BME280;38103;42.776;23.112;2022-10-16T01:27:09;94608.09;;;4.25;100.00
52105;BME280;38103;42.776;23.112;2022-10-16T01:29:43;94604.59;;;4.33;100.00
52105;BME280;38103;42.776;23.112;2022-10-16T01:32:27;94618.66;;;4.47;100.00
52105;BME280;38103;42.776;23.112;2022-10-16T01:35:00;94614.06;;;4.64;100.00
52105;BME280;38103;42.776;23.112;2022-10-16T01:40:25;94565.94;;;4.50;100.00
52105;BME280;38103;42.776;23.112;2022-10-16T01:42:59;94617.41;;;4.73;100.00
52105;BME280;38103;42.776;23.112;2022-10-16T01:45:28;94618.13;;;4.67;100.00
52105;BME280;38103;42.776;23.112;2022-10-16T01:47:55;94629.69;;;4.57;100.00
52105;BME280;38103;42.776;23.112;2022-10-16T01:50:21;94577.31;;;4.27;100.00
52105;BME280;38103;42.776;23.112;2022-10-16T01:52:51;94573.41;;;4.23;100.00
52105;BME280;38103;42.776;23.112;2022-10-16T01:55:30;94629.97;;;4.63;100.00
52105;BME280;38103;42.776;23.112;2022-10-16T01:57:59;94628.53;;;4.60;100.00
52105;BME280;38103;42.776;23.112;2022-10-16T02:00:26;94644.16;;;4.53;100.00
52105;BME280;38103;42.776;23.112;2022-10-16T02:02:53;94635.00;;;4.49;100.00
52105;BME280;38103;42.776;23.112;2022-10-16T02:08:04;94642.94;;;4.41;100.00
52105;BME280;38103;42.776;23.112;2022-10-16T02:10:29;94645.84;;;4.46;100.00
52105;BME280;38103;42.776;23.112;2022-10-16T02:15:59;94649.09;;;4.48;100.00
52105;BME280;38103;42.776;23.112;2022-10-16T02:18:26;94654.06;;;4.43;100.00
52105;BME280;38103;42.776;23.112;2022-10-16T02:21:00;94642.22;;;4.32;100.00
52105;BME280;38103;42.776;23.112;2022-10-16T02:23:54;94650.59;;;4.27;100.00
52105;BME280;38103;42.776;23.112;2022-10-16T02:26:50;94651.03;;;4.31;100.00
52105;BME280;38103;42.776;23.112;2022-10-16T02:29:21;94656.41;;;4.38;100.00
52105;BME280;38103;42.776;23.112;2022-10-16T02:31:52;94656.69;;;4.43;100.00
52105;BME280;38103;42.776;23.112;2022-10-16T02:34:20;94654.84;;;4.43;100.00
52105;BME280;38103;42.776;23.112;2022-10-16T02:36:48;94630.44;;;4.12;100.00
52105;BME280;38103;42.776;23.112;2022-10-16T02:39:16;94657.09;;;4.31;100.00
52105;BME280;38103;42.776;23.112;2022-10-16T02:41:43;94659.44;;;4.26;100.00
52105;BME280;38103;42.776;23.112;2022-10-16T02:44:08;94662.41;;;4.23;100.00
52105;BME280;38103;42.776;23.112;2022-10-16T02:46:34;94635.16;;;4.17;100.00
52105;BME280;38103;42.776;23.112;2022-10-16T02:48:59;94665.78;;;4.47;100.00
52105;BME280;38103;42.776;23.112;2022-10-16T02:51:24;94671.84;;;4.47;100.00
52105;BME280;38103;42.776;23.112;2022-10-16T02:53:50;94612.84;;;4.06;100.00
52105;BME280;38103;42.776;23.112;2022-10-16T02:56:15;94677.91;;;4.48;100.00
52105;BME280;38103;42.776;23.112;2022-10-16T02:58:41;94670.94;;;4.40;100.00
52105;BME280;38103;42.776;23.112;2022-10-16T03:01:06;94673.44;;;4.33;100.00
52105;BME280;38103;42.776;23.112;2022-10-16T03:03:31;94676.16;;;4.25;100.00
52105;BME280;38103;42.776;23.112;2022-10-16T03:05:57;94672.25;;;4.21;100.00
52105;BME280;38103;42.776;23.112;2022-10-16T03:08:22;94667.78;;;4.06;100.00
52105;BME280;38103;42.776;23.112;2022-10-16T03:10:50;94663.94;;;3.94;100.00
52105;BME280;38103;42.776;23.112;2022-10-16T03:13:15;94666.44;;;3.87;100.00
52105;BME280;38103;42.776;23.112;2022-10-16T03:15:41;94672.50;;;3.87;100.00
52105;BME280;38103;42.776;23.112;2022-10-16T03:18:06;94634.09;;;3.56;100.00
52105;BME280;38103;42.776;23.112;2022-10-16T03:20:32;94677.56;;;3.89;100.00
52105;BME280;38103;42.776;23.112;2022-10-16T03:22:58;94534.88;;;2.92;100.00
52105;BME280;38103;42.776;23.112;2022-10-16T03:25:24;94677.03;;;3.94;100.00
52105;BME280;38103;42.776;23.112;2022-10-16T03:27:49;94689.06;;;4.03;100.00
52105;BME280;38103;42.776;23.112;2022-10-16T03:30:14;94695.34;;;3.94;100.00
52105;BME280;38103;42.776;23.112;2022-10-16T03:32:41;94678.25;;;3.83;100.00
52105;BME280;38103;42.776;23.112;2022-10-16T03:35:07;94681.03;;;3.81;100.00
52105;BME280;38103;42.776;23.112;2022-10-16T03:37:32;94685.03;;;3.92;100.00
52105;BME280;38103;42.776;23.112;2022-10-16T03:39:58;94688.66;;;4.15;100.00
52105;BME280;38103;42.776;23.112;2022-10-16T03:42:24;94669.69;;;4.12;100.00
52105;BME280;38103;42.776;23.112;2022-10-16T03:44:49;94683.91;;;4.33;100.00
52105;BME280;38103;42.776;23.112;2022-10-16T03:47:15;94687.59;;;4.24;100.00
52105;BME280;38103;42.776;23.112;2022-10-16T03:49:40;94683.13;;;4.09;100.00
52105;BME280;38103;42.776;23.112;2022-10-16T03:52:05;94679.59;;;4.02;100.00
52105;BME280;38103;42.776;23.112;2022-10-16T03:54:31;94684.25;;;3.91;100.00
52105;BME280;38103;42.776;23.112;2022-10-16T03:56:56;94685.97;;;3.76;100.00
52105;BME280;38103;42.776;23.112;2022-10-16T03:59:22;94687.38;;;3.63;100.00
52105;BME280;38103;42.776;23.112;2022-10-16T04:01:47;94683.63;;;3.57;100.00
52105;BME280;38103;42.776;23.112;2022-10-16T04:04:12;94676.44;;;3.60;100.00
52105;BME280;38103;42.776;23.112;2022-10-16T04:06:38;94681.47;;;3.61;100.00
52105;BME280;38103;42.776;23.112;2022-10-16T04:09:03;94677.91;;;3.54;100.00
52105;BME280;38103;42.776;23.112;2022-10-16T04:11:29;94683.16;;;3.54;100.00
52105;BME280;38103;42.776;23.112;2022-10-16T04:13:55;94671.41;;;3.50;100.00
52105;BME280;38103;42.776;23.112;2022-10-16T04:16:20;94685.13;;;3.52;100.00
52105;BME280;38103;42.776;23.112;2022-10-16T04:18:46;94689.03;;;3.56;100.00
52105;BME280;38103;42.776;23.112;2022-10-16T04:21:11;94686.06;;;3.59;100.00
52105;BME280;38103;42.776;23.112;2022-10-16T04:23:37;94681.53;;;3.53;100.00
52105;BME280;38103;42.776;23.112;2022-10-16T04:26:02;94680.31;;;3.64;100.00
52105;BME280;38103;42.776;23.112;2022-10-16T04:28:28;94687.66;;;3.68;100.00
52105;BME280;38103;42.776;23.112;2022-10-16T04:30:54;94681.94;;;3.65;100.00
52105;BME280;38103;42.776;23.112;2022-10-16T04:33:19;94683.53;;;3.74;100.00
52105;BME280;38103;42.776;23.112;2022-10-16T04:35:44;94648.03;;;3.48;100.00
52105;BME280;38103;42.776;23.112;2022-10-16T04:38:10;94685.06;;;3.68;100.00
52105;BME280;38103;42.776;23.112;2022-10-16T04:40:35;94689.22;;;3.78;100.00
52105;BME280;38103;42.776;23.112;2022-10-16T04:43:03;94693.06;;;3.90;100.00
52105;BME280;38103;42.776;23.112;2022-10-16T04:45:28;94702.47;;;4.00;100.00
52105;BME280;38103;42.776;23.112;2022-10-16T04:47:57;94702.19;;;3.95;100.00
52105;BME280;38103;42.776;23.112;2022-10-16T04:50:22;94701.31;;;3.79;100.00
52105;BME280;38103;42.776;23.112;2022-10-16T04:52:48;94708.06;;;3.73;100.00
52105;BME280;38103;42.776;23.112;2022-10-16T04:55:13;94715.47;;;3.61;100.00
52105;BME280;38103;42.776;23.112;2022-10-16T04:57:38;94709.63;;;3.51;100.00
52105;BME280;38103;42.776;23.112;2022-10-16T05:00:05;94715.22;;;3.48;100.00
52105;BME280;38103;42.776;23.112;2022-10-16T05:02:30;94707.75;;;3.36;100.00
52105;BME280;38103;42.776;23.112;2022-10-16T05:04:55;94713.91;;;3.43;100.00
52105;BME280;38103;42.776;23.112;2022-10-16T05:07:21;94710.91;;;3.63;100.00
52105;BME280;38103;42.776;23.112;2022-10-16T05:09:46;94704.00;;;3.94;100.00
52105;BME280;38103;42.776;23.112;2022-10-16T05:12:12;94707.91;;;4.22;100.00
52105;BME280;38103;42.776;23.112;2022-10-16T05:14:37;94718.72;;;4.57;100.00
52105;BME280;38103;42.776;23.112;2022-10-16T05:17:03;94715.09;;;4.97;100.00
52105;BME280;38103;42.776;23.112;2022-10-16T05:19:28;94717.25;;;5.24;100.00
52105;BME280;38103;42.776;23.112;2022-10-16T05:21:53;94716.59;;;5.37;100.00
52105;BME280;38103;42.776;23.112;2022-10-16T05:24:19;94721.78;;;5.67;100.00
52105;BME280;38103;42.776;23.112;2022-10-16T05:26:44;94723.72;;;5.96;100.00
52105;BME280;38103;42.776;23.112;2022-10-16T05:29:09;94730.00;;;6.17;100.00
52105;BME280;38103;42.776;23.112;2022-10-16T05:31:35;94733.13;;;6.27;100.00
52105;BME280;38103;42.776;23.112;2022-10-16T05:34:01;94679.19;;;6.02;100.00
52105;BME280;38103;42.776;23.112;2022-10-16T05:36:26;94742.63;;;6.72;100.00
52105;BME280;38103;42.776;23.112;2022-10-16T05:38:52;94737.31;;;7.30;100.00
52105;BME280;38103;42.776;23.112;2022-10-16T05:41:18;94734.53;;;7.80;99.13
52105;BME280;38103;42.776;23.112;2022-10-16T05:43:47;94738.25;;;8.13;98.24
52105;BME280;38103;42.776;23.112;2022-10-16T05:46:12;94719.03;;;8.47;95.78
52105;BME280;38103;42.776;23.112;2022-10-16T05:48:38;94743.00;;;9.07;92.90
52105;BME280;38103;42.776;23.112;2022-10-16T05:51:09;94741.69;;;9.50;89.77
52105;BME280;38103;42.776;23.112;2022-10-16T05:53:36;94697.72;;;9.69;87.38
52105;BME280;38103;42.776;23.112;2022-10-16T05:56:02;94749.34;;;10.44;84.53
52105;BME280;38103;42.776;23.112;2022-10-16T05:58:36;94757.03;;;10.84;82.95
52105;BME280;38103;42.776;23.112;2022-10-16T06:01:07;94755.63;;;11.26;81.25
52105;BME280;38103;42.776;23.112;2022-10-16T06:03:35;94753.25;;;11.62;79.36
52105;BME280;38103;42.776;23.112;2022-10-16T06:06:08;94752.75;;;11.72;77.10
52105;BME280;38103;42.776;23.112;2022-10-16T06:08:34;94763.25;;;11.60;76.59
52105;BME280;38103;42.776;23.112;2022-10-16T06:11:07;94766.56;;;11.56;77.82
52105;BME280;38103;42.776;23.112;2022-10-16T06:13:33;94772.75;;;11.68;77.88
52105;BME280;38103;42.776;23.112;2022-10-16T06:16:00;94784.38;;;11.48;78.24
52105;BME280;38103;42.776;23.112;2022-10-16T06:18:26;94783.06;;;11.95;77.07
52105;BME280;38103;42.776;23.112;2022-10-16T06:20:53;94782.44;;;11.37;78.53
52105;BME280;38103;42.776;23.112;2022-10-16T06:23:18;94788.06;;;11.66;77.43
52105;BME280;38103;42.776;23.112;2022-10-16T06:25:44;94788.63;;;11.87;76.85
52105;BME280;38103;42.776;23.112;2022-10-16T06:28:09;94796.28;;;11.77;76.42
52105;BME280;38103;42.776;23.112;2022-10-16T06:30:34;94793.69;;;11.06;79.47
52105;BME280;38103;42.776;23.112;2022-10-16T06:33:00;94795.00;;;10.97;80.10
52105;BME280;38103;42.776;23.112;2022-10-16T06:35:25;94794.22;;;11.41;79.21
52105;BME280;38103;42.776;23.112;2022-10-16T06:37:52;94800.31;;;11.16;79.22
52105;BME280;38103;42.776;23.112;2022-10-16T06:40:18;94793.78;;;11.82;76.99
52105;BME280;38103;42.776;23.112;2022-10-16T06:42:43;94789.66;;;12.24;75.28
52105;BME280;38103;42.776;23.112;2022-10-16T06:45:09;94796.16;;;11.90;75.37
52105;BME280;38103;42.776;23.112;2022-10-16T06:47:35;94793.56;;;12.02;75.71
52105;BME280;38103;42.776;23.112;2022-10-16T06:50:00;94796.50;;;12.62;73.98
52105;BME280;38103;42.776;23.112;2022-10-16T06:52:28;94802.41;;;12.77;72.39
52105;BME280;38103;42.776;23.112;2022-10-16T06:54:53;94813.06;;;12.08;73.75
52105;BME280;38103;42.776;23.112;2022-10-16T06:57:18;94816.75;;;12.07;75.60
52105;BME280;38103;42.776;23.112;2022-10-16T06:59:44;94812.47;;;12.56;72.92
52105;BME280;38103;42.776;23.112;2022-10-16T07:02:09;94819.72;;;12.79;72.18
52105;BME280;38103;42.776;23.112;2022-10-16T07:04:36;94812.06;;;12.71;72.55
52105;BME280;38103;42.776;23.112;2022-10-16T07:07:01;94815.72;;;13.01;69.24
52105;BME280;38103;42.776;23.112;2022-10-16T07:09:26;94824.13;;;12.98;67.41
52105;BME280;38103;42.776;23.112;2022-10-16T07:11:52;94830.38;;;12.29;67.47
52105;BME280;38103;42.776;23.112;2022-10-16T07:14:20;94822.72;;;12.83;67.56
52105;BME280;38103;42.776;23.112;2022-10-16T07:16:47;94825.69;;;13.29;63.92
52105;BME280;38103;42.776;23.112;2022-10-16T07:19:13;94829.63;;;13.39;64.21
52105;BME280;38103;42.776;23.112;2022-10-16T07:21:40;94829.25;;;13.11;64.44
52105;BME280;38103;42.776;23.112;2022-10-16T07:24:11;94824.97;;;13.22;63.71
52105;BME280;38103;42.776;23.112;2022-10-16T07:26:37;94819.56;;;13.29;63.80
52105;BME280;38103;42.776;23.112;2022-10-16T07:29:05;94826.69;;;13.04;64.44
52105;BME280;38103;42.776;23.112;2022-10-16T07:31:30;94833.50;;;13.00;65.67
52105;BME280;38103;42.776;23.112;2022-10-16T07:33:58;94831.41;;;13.02;64.83
52105;BME280;38103;42.776;23.112;2022-10-16T07:36:24;94835.81;;;13.09;64.59
52105;BME280;38103;42.776;23.112;2022-10-16T07:38:49;94834.31;;;13.13;64.38
52105;BME280;38103;42.776;23.112;2022-10-16T07:41:16;94837.78;;;13.13;64.30
52105;BME280;38103;42.776;23.112;2022-10-16T07:43:50;94832.69;;;13.00;64.25
52105;BME280;38103;42.776;23.112;2022-10-16T07:46:16;94836.31;;;13.29;64.24
52105;BME280;38103;42.776;23.112;2022-10-16T07:48:41;94834.94;;;13.27;63.94
52105;BME280;38103;42.776;23.112;2022-10-16T07:51:11;94809.97;;;13.16;64.19
52105;BME280;38103;42.776;23.112;2022-10-16T07:53:36;94836.91;;;12.89;64.73
52105;BME280;38103;42.776;23.112;2022-10-16T07:56:04;94807.44;;;13.45;64.06
52105;BME280;38103;42.776;23.112;2022-10-16T07:58:30;94844.41;;;13.47;62.81
52105;BME280;38103;42.776;23.112;2022-10-16T08:00:57;94841.19;;;13.69;63.09
52105;BME280;38103;42.776;23.112;2022-10-16T08:03:23;94846.22;;;13.10;64.16
52105;BME280;38103;42.776;23.112;2022-10-16T08:05:48;94838.72;;;13.19;64.58
52105;BME280;38103;42.776;23.112;2022-10-16T08:08:15;94844.38;;;13.11;64.66
52105;BME280;38103;42.776;23.112;2022-10-16T08:10:41;94837.22;;;13.23;64.64
52105;BME280;38103;42.776;23.112;2022-10-16T08:13:07;94830.06;;;13.36;63.44
52105;BME280;38103;42.776;23.112;2022-10-16T08:15:32;94840.97;;;12.91;63.48
52105;BME280;38103;42.776;23.112;2022-10-16T08:17:59;94820.22;;;12.57;65.00
52105;BME280;38103;42.776;23.112;2022-10-16T08:20:26;94838.31;;;12.60;66.06
52105;BME280;38103;42.776;23.112;2022-10-16T08:22:52;94830.97;;;13.05;64.74
52105;BME280;38103;42.776;23.112;2022-10-16T08:25:17;94835.56;;;12.98;64.42
52105;BME280;38103;42.776;23.112;2022-10-16T08:27:43;94821.63;;;13.03;63.74
52105;BME280;38103;42.776;23.112;2022-10-16T08:30:09;94838.84;;;13.48;61.60
52105;BME280;38103;42.776;23.112;2022-10-16T08:32:35;94837.09;;;13.06;62.25
52105;BME280;38103;42.776;23.112;2022-10-16T08:35:00;94843.00;;;12.77;63.19
52105;BME280;38103;42.776;23.112;2022-10-16T08:37:30;94838.53;;;12.90;63.52
52105;BME280;38103;42.776;23.112;2022-10-16T08:39:55;94783.50;;;12.73;63.57
52105;BME280;38103;42.776;23.112;2022-10-16T08:42:59;94839.31;;;13.45;60.92
52105;BME280;38103;42.776;23.112;2022-10-16T08:45:43;94836.13;;;13.67;61.10
52105;BME280;38103;42.776;23.112;2022-10-16T08:48:22;94846.50;;;13.81;59.45
52105;BME280;38103;42.776;23.112;2022-10-16T08:50:52;94843.19;;;14.27;59.61
52105;BME280;38103;42.776;23.112;2022-10-16T08:53:24;94803.19;;;14.22;53.22
52105;BME280;38103;42.776;23.112;2022-10-16T08:55:53;94847.94;;;14.66;54.81
52105;BME280;38103;42.776;23.112;2022-10-16T08:58:22;94845.66;;;14.46;54.08
52105;BME280;38103;42.776;23.112;2022-10-16T09:01:00;94835.56;;;14.18;53.94
52105;BME280;38103;42.776;23.112;2022-10-16T09:12:18;94845.94;;;14.61;53.24
52105;BME280;38103;42.776;23.112;2022-10-16T09:20:13;94841.13;;;14.58;55.38
52105;BME280;38103;42.776;23.112;2022-10-16T09:22:42;94843.28;;;14.32;54.74
52105;BME280;38103;42.776;23.112;2022-10-16T09:25:18;94822.53;;;14.17;55.02
52105;BME280;38103;42.776;23.112;2022-10-16T09:27:47;94843.09;;;14.51;56.51
52105;BME280;38103;42.776;23.112;2022-10-16T09:30:18;94849.88;;;14.71;52.74
52105;BME280;38103;42.776;23.112;2022-10-16T09:32:45;94845.00;;;14.38;52.66
52105;BME280;38103;42.776;23.112;2022-10-16T09:35:18;94837.78;;;14.22;55.28
52105;BME280;38103;42.776;23.112;2022-10-16T09:37:47;94845.50;;;14.35;54.46
52105;BME280;38103;42.776;23.112;2022-10-16T09:40:30;94834.75;;;14.59;52.60
52105;BME280;38103;42.776;23.112;2022-10-16T09:43:23;94844.53;;;14.41;55.25
52105;BME280;38103;42.776;23.112;2022-10-16T09:45:57;94845.66;;;14.46;52.88
52105;BME280;38103;42.776;23.112;2022-10-16T09:48:25;94840.72;;;14.67;53.37
52105;BME280;38103;42.776;23.112;2022-10-16T09:50:56;94838.97;;;14.72;49.82
52105;BME280;38103;42.776;23.112;2022-10-16T09:53:22;94835.72;;;14.53;49.03
52105;BME280;38103;42.776;23.112;2022-10-16T09:55:52;94831.06;;;14.60;49.38
52105;BME280;38103;42.776;23.112;2022-10-16T09:58:22;94835.75;;;14.70;48.58
52105;BME280;38103;42.776;23.112;2022-10-16T10:00:53;94829.69;;;14.46;49.93
52105;BME280;38103;42.776;23.112;2022-10-16T10:03:33;94820.28;;;14.26;52.08
52105;BME280;38103;42.776;23.112;2022-10-16T10:06:06;94828.41;;;14.48;49.98
52105;BME280;38103;42.776;23.112;2022-10-16T10:08:32;94799.88;;;14.02;47.49
52105;BME280;38103;42.776;23.112;2022-10-16T10:10:58;94826.25;;;14.04;49.28
52105;BME280;38103;42.776;23.112;2022-10-16T10:13:24;94822.69;;;14.39;50.97
52105;BME280;38103;42.776;23.112;2022-10-16T10:15:52;94824.09;;;14.59;49.79
52105;BME280;38103;42.776;23.112;2022-10-16T10:18:19;94804.44;;;14.60;50.14
52105;BME280;38103;42.776;23.112;2022-10-16T10:20:57;94813.66;;;14.70;47.09
52105;BME280;38103;42.776;23.112;2022-10-16T10:23:25;94808.78;;;14.67;47.34
52105;BME280;38103;42.776;23.112;2022-10-16T10:26:07;94809.88;;;14.83;48.96
52105;BME280;38103;42.776;23.112;2022-10-16T10:31:27;94801.63;;;14.84;46.95
52105;BME280;38103;42.776;23.112;2022-10-16T10:34:17;94798.88;;;14.91;45.61
52105;BME280;38103;42.776;23.112;2022-10-16T10:36:53;94796.13;;;15.03;46.06
52105;BME280;38103;42.776;23.112;2022-10-16T10:39:30;94786.13;;;14.93;46.05
52105;BME280;38103;42.776;23.112;2022-10-16T10:45:07;94787.22;;;15.49;45.68
52105;BME280;38103;42.776;23.112;2022-10-16T10:50:41;94781.91;;;15.32;42.87
52105;BME280;38103;42.776;23.112;2022-10-16T10:54:02;94778.28;;;15.21;44.06
52105;BME280;38103;42.776;23.112;2022-10-16T11:01:33;94773.34;;;15.13;44.72
52105;BME280;38103;42.776;23.112;2022-10-16T11:07:15;94766.22;;;15.53;42.86
52105;BME280;38103;42.776;23.112;2022-10-16T11:09:49;94771.69;;;15.63;44.83
52105;BME280;38103;42.776;23.112;2022-10-16T11:12:29;94766.38;;;15.46;43.72
52105;BME280;38103;42.776;23.112;2022-10-16T11:15:15;94765.06;;;15.66;42.06
52105;BME280;38103;42.776;23.112;2022-10-16T11:17:55;94771.00;;;15.73;43.55
52105;BME280;38103;42.776;23.112;2022-10-16T11:20:34;94737.78;;;15.59;39.91
52105;BME280;38103;42.776;23.112;2022-10-16T11:23:27;94767.59;;;15.78;40.68
52105;BME280;38103;42.776;23.112;2022-10-16T11:25:57;94764.19;;;15.83;39.46
52105;BME280;38103;42.776;23.112;2022-10-16T11:28:29;94770.53;;;15.77;39.45
52105;BME280;38103;42.776;23.112;2022-10-16T11:31:16;94763.00;;;15.51;39.14
52105;BME280;38103;42.776;23.112;2022-10-16T11:34:12;94755.97;;;15.45;40.30
52105;BME280;38103;42.776;23.112;2022-10-16T11:37:12;94751.66;;;15.61;41.58
52105;BME280;38103;42.776;23.112;2022-10-16T11:39:39;94753.72;;;15.76;42.58
52105;BME280;38103;42.776;23.112;2022-10-16T11:42:22;94765.81;;;15.84;41.08
52105;BME280;38103;42.776;23.112;2022-10-16T11:50:36;94742.66;;;16.07;41.10
52105;BME280;38103;42.776;23.112;2022-10-16T11:55:47;94765.75;;;16.24;39.21
52105;BME280;38103;42.776;23.112;2022-10-16T11:58:32;94750.59;;;16.29;38.59
52105;BME280;38103;42.776;23.112;2022-10-16T12:08:59;94741.84;;;16.06;37.71
52105;BME280;38103;42.776;23.112;2022-10-16T12:16:38;94750.50;;;16.19;38.13
52105;BME280;38103;42.776;23.112;2022-10-16T12:19:15;94735.03;;;16.44;38.90
52105;BME280;38103;42.776;23.112;2022-10-16T12:21:42;94740.50;;;16.59;39.56
52105;BME280;38103;42.776;23.112;2022-10-16T12:26:46;94738.44;;;16.67;38.96
52105;BME280;38103;42.776;23.112;2022-10-16T12:29:28;94751.31;;;16.47;38.75
52105;BME280;38103;42.776;23.112;2022-10-16T12:31:55;94746.78;;;16.48;37.20
52105;BME280;38103;42.776;23.112;2022-10-16T12:34:28;94741.94;;;16.45;36.56
52105;BME280;38103;42.776;23.112;2022-10-16T12:36:55;94721.91;;;16.42;38.23
52105;BME280;38103;42.776;23.112;2022-10-16T12:39:42;94744.03;;;16.70;38.25
52105;BME280;38103;42.776;23.112;2022-10-16T12:42:36;94739.03;;;16.74;37.72
52105;BME280;38103;42.776;23.112;2022-10-16T12:45:32;94735.72;;;16.61;37.52
52105;BME280;38103;42.776;23.112;2022-10-16T12:48:00;94739.94;;;16.57;38.00
52105;BME280;38103;42.776;23.112;2022-10-16T12:52:53;94737.91;;;16.42;36.58
52105;BME280;38103;42.776;23.112;2022-10-16T12:55:21;94739.38;;;16.55;38.09
52105;BME280;38103;42.776;23.112;2022-10-16T13:00:54;94744.16;;;16.53;36.97
52105;BME280;38103;42.776;23.112;2022-10-16T13:06:55;94749.31;;;16.32;38.26
52105;BME280;38103;42.776;23.112;2022-10-16T13:17:28;94760.91;;;16.43;36.71
52105;BME280;38103;42.776;23.112;2022-10-16T13:20:21;94760.59;;;16.39;37.23
52105;BME280;38103;42.776;23.112;2022-10-16T13:23:04;94754.19;;;16.40;36.58
52105;BME280;38103;42.776;23.112;2022-10-16T13:28:02;94762.31;;;16.51;37.06
52105;BME280;38103;42.776;23.112;2022-10-16T13:33:14;94752.41;;;16.24;35.10
52105;BME280;38103;42.776;23.112;2022-10-16T13:35:52;94764.81;;;16.35;32.25
52105;BME280;38103;42.776;23.112;2022-10-16T13:38:20;94718.09;;;16.05;32.22
52105;BME280;38103;42.776;23.112;2022-10-16T13:40:53;94766.94;;;16.33;33.33
52105;BME280;38103;42.776;23.112;2022-10-16T13:43:22;94760.53;;;16.34;32.06
52105;BME280;38103;42.776;23.112;2022-10-16T13:45:56;94760.28;;;16.36;32.79
52105;BME280;38103;42.776;23.112;2022-10-16T13:48:22;94750.22;;;16.15;32.42
52105;BME280;38103;42.776;23.112;2022-10-16T13:51:01;94702.75;;;15.95;33.33
52105;BME280;38103;42.776;23.112;2022-10-16T13:53:30;94767.88;;;16.22;34.14
52105;BME280;38103;42.776;23.112;2022-10-16T13:55:56;94769.50;;;16.23;34.54
52105;BME280;38103;42.776;23.112;2022-10-16T13:58:21;94774.38;;;16.31;34.91
52105;BME280;38103;42.776;23.112;2022-10-16T14:01:40;94769.53;;;16.28;35.31
52105;BME280;38103;42.776;23.112;2022-10-16T14:03:43;94728.75;;;16.05;35.33
52105;BME280;38103;42.776;23.112;2022-10-16T14:06:18;94772.22;;;16.28;34.82
52105;BME280;38103;42.776;23.112;2022-10-16T14:08:57;94775.75;;;16.11;36.45
52105;BME280;38103;42.776;23.112;2022-10-16T14:11:24;94755.28;;;15.94;36.52
52105;BME280;38103;42.776;23.112;2022-10-16T14:13:50;94737.53;;;15.83;35.54
52105;BME280;38103;42.776;23.112;2022-10-16T14:16:26;94776.91;;;15.98;35.68
52105;BME280;38103;42.776;23.112;2022-10-16T14:19:01;94780.31;;;15.93;35.70
52105;BME280;38103;42.776;23.112;2022-10-16T14:21:27;94780.16;;;16.00;36.75
52105;BME280;38103;42.776;23.112;2022-10-16T14:23:53;94785.78;;;16.04;36.28
52105;BME280;38103;42.776;23.112;2022-10-16T14:26:22;94776.91;;;15.98;35.38
52105;BME280;38103;42.776;23.112;2022-10-16T14:28:49;94746.81;;;15.58;36.10
52105;BME280;38103;42.776;23.112;2022-10-16T14:31:31;94779.63;;;15.81;36.54
52105;BME280;38103;42.776;23.112;2022-10-16T14:33:58;94790.16;;;15.70;35.95
52105;BME280;38103;42.776;23.112;2022-10-16T14:36:24;94784.22;;;15.63;36.77
52105;BME280;38103;42.776;23.112;2022-10-16T14:39:19;94792.69;;;15.60;37.03